sensor_id;sensor_type;location;lat;lon;timestamp;temperature;humidity
72320;SHT30;60269;52.502;16.732;2022-10-16T00:02:43;12.47;97.89
72320;SHT30;60269;52.502;16.732;2022-10-16T00:06:16;12.53;97.75
72320;SHT30;60269;52.502;16.732;2022-10-16T00:09:48;12.60;97.41
72320;SHT30;60269;52.502;16.732;2022-10-16T00:13:20;12.66;97.10
72320;SHT30;60269;52.502;16.732;2022-10-16T00:16:52;12.73;96.87
72320;SHT30;60269;52.502;16.732;2022-10-16T00:20:24;12.72;96.87
72320;SHT30;60269;52.502;16.732;2022-10-16T00:24:02;12.74;96.87
72320;SHT30;60269;52.502;16.732;2022-10-16T00:27:34;12.83;96.64
72320;SHT30;60269;52.502;16.732;2022-10-16T00:31:09;12.86;96.54
72320;SHT30;60269;52.502;16.732;2022-10-16T00:34:41;12.91;96.45
72320;SHT30;60269;52.502;16.732;2022-10-16T00:38:13;12.95;96.31
72320;SHT30;60269;52.502;16.732;2022-10-16T00:41:45;13.00;96.19
72320;SHT30;60269;52.502;16.732;2022-10-16T00:45:16;12.97;96.33
72320;SHT30;60269;52.502;16.732;2022-10-16T00:48:59;13.03;96.31
72320;SHT30;60269;52.502;16.732;2022-10-16T00:52:32;13.14;95.91
72320;SHT30;60269;52.502;16.732;2022-10-16T00:56:04;13.24;95.48
72320;SHT30;60269;52.502;16.732;2022-10-16T00:59:39;13.29;95.19
72320;SHT30;60269;52.502;16.732;2022-10-16T01:03:31;13.34;94.92
72320;SHT30;60269;52.502;16.732;2022-10-16T01:07:13;13.34;95.01
72320;SHT30;60269;52.502;16.732;2022-10-16T01:10:57;13.35;94.88
72320;SHT30;60269;52.502;16.732;2022-10-16T01:14:48;13.39;94.98
72320;SHT30;60269;52.502;16.732;2022-10-16T01:18:52;13.44;94.69
72320;SHT30;60269;52.502;16.732;2022-10-16T01:22:33;13.48;94.40
72320;SHT30;60269;52.502;16.732;2022-10-16T01:30:04;13.46;94.55
72320;SHT30;60269;52.502;16.732;2022-10-16T01:34:05;13.52;94.14
72320;SHT30;60269;52.502;16.732;2022-10-16T01:38:10;13.52;94.21
72320;SHT30;60269;52.502;16.732;2022-10-16T01:41:48;13.56;94.00
72320;SHT30;60269;52.502;16.732;2022-10-16T01:45:21;13.56;93.84
72320;SHT30;60269;52.502;16.732;2022-10-16T01:48:53;13.56;94.04
72320;SHT30;60269;52.502;16.732;2022-10-16T01:52:28;13.61;93.83
72320;SHT30;60269;52.502;16.732;2022-10-16T01:56:03;13.58;94.02
72320;SHT30;60269;52.502;16.732;2022-10-16T01:59:42;13.65;93.62
72320;SHT30;60269;52.502;16.732;2022-10-16T02:03:17;13.62;93.83
72320;SHT30;60269;52.502;16.732;2022-10-16T02:06:49;13.61;93.80
72320;SHT30;60269;52.502;16.732;2022-10-16T02:10:23;13.65;93.70
72320;SHT30;60269;52.502;16.732;2022-10-16T02:14:01;13.63;93.80
72320;SHT30;60269;52.502;16.732;2022-10-16T02:17:34;13.65;93.65
72320;SHT30;60269;52.502;16.732;2022-10-16T02:25:10;13.66;93.81
72320;SHT30;60269;52.502;16.732;2022-10-16T02:28:47;13.66;93.80
72320;SHT30;60269;52.502;16.732;2022-10-16T02:32:23;13.65;93.90
72320;SHT30;60269;52.502;16.732;2022-10-16T02:35:56;13.63;93.94
72320;SHT30;60269;52.502;16.732;2022-10-16T02:39:29;13.70;93.73
72320;SHT30;60269;52.502;16.732;2022-10-16T02:43:03;13.74;93.47
72320;SHT30;60269;52.502;16.732;2022-10-16T02:46:35;13.72;93.72
72320;SHT30;60269;52.502;16.732;2022-10-16T02:50:07;13.67;93.74
72320;SHT30;60269;52.502;16.732;2022-10-16T02:53:39;13.69;93.93
72320;SHT30;60269;52.502;16.732;2022-10-16T02:57:11;13.70;93.96
72320;SHT30;60269;52.502;16.732;2022-10-16T03:00:43;13.69;93.91
72320;SHT30;60269;52.502;16.732;2022-10-16T03:04:15;13.62;94.28
72320;SHT30;60269;52.502;16.732;2022-10-16T03:07:47;13.66;94.07
72320;SHT30;60269;52.502;16.732;2022-10-16T03:11:18;13.66;94.07
72320;SHT30;60269;52.502;16.732;2022-10-16T03:14:50;13.63;94.27
72320;SHT30;60269;52.502;16.732;2022-10-16T03:18:22;13.58;94.34
72320;SHT30;60269;52.502;16.732;2022-10-16T03:21:54;13.51;94.67
72320;SHT30;60269;52.502;16.732;2022-10-16T03:25:26;13.49;94.91
72320;SHT30;60269;52.502;16.732;2022-10-16T03:28:58;13.53;94.61
72320;SHT30;60269;52.502;16.732;2022-10-16T03:32:30;13.58;94.44
72320;SHT30;60269;52.502;16.732;2022-10-16T03:36:02;13.61;94.45
72320;SHT30;60269;52.502;16.732;2022-10-16T03:39:34;13.56;94.53
72320;SHT30;60269;52.502;16.732;2022-10-16T03:43:06;13.63;94.43
72320;SHT30;60269;52.502;16.732;2022-10-16T03:46:38;13.70;94.30
72320;SHT30;60269;52.502;16.732;2022-10-16T03:50:09;13.70;94.31
72320;SHT30;60269;52.502;16.732;2022-10-16T03:53:41;13.70;94.43
72320;SHT30;60269;52.502;16.732;2022-10-16T03:57:13;13.76;94.29
72320;SHT30;60269;52.502;16.732;2022-10-16T04:00:45;13.76;94.47
72320;SHT30;60269;52.502;16.732;2022-10-16T04:04:17;13.82;94.51
72320;SHT30;60269;52.502;16.732;2022-10-16T04:07:49;13.80;94.77
72320;SHT30;60269;52.502;16.732;2022-10-16T04:11:21;13.77;94.78
72320;SHT30;60269;52.502;16.732;2022-10-16T04:14:53;13.72;95.73
72320;SHT30;60269;52.502;16.732;2022-10-16T04:18:25;13.66;96.39
72320;SHT30;60269;52.502;16.732;2022-10-16T04:21:58;13.63;96.65
72320;SHT30;60269;52.502;16.732;2022-10-16T04:25:30;13.61;96.72
72320;SHT30;60269;52.502;16.732;2022-10-16T04:29:02;13.65;96.69
72320;SHT30;60269;52.502;16.732;2022-10-16T04:32:34;13.67;96.50
72320;SHT30;60269;52.502;16.732;2022-10-16T04:36:06;13.70;96.48
72320;SHT30;60269;52.502;16.732;2022-10-16T04:39:38;13.72;96.33
72320;SHT30;60269;52.502;16.732;2022-10-16T04:43:09;13.73;96.39
72320;SHT30;60269;52.502;16.732;2022-10-16T04:46:42;13.72;96.44
72320;SHT30;60269;52.502;16.732;2022-10-16T04:50:14;13.74;96.27
72320;SHT30;60269;52.502;16.732;2022-10-16T04:53:45;13.70;96.48
72320;SHT30;60269;52.502;16.732;2022-10-16T04:57:17;13.72;96.34
72320;SHT30;60269;52.502;16.732;2022-10-16T05:00:49;13.66;96.47
72320;SHT30;60269;52.502;16.732;2022-10-16T05:04:20;13.51;97.12
72320;SHT30;60269;52.502;16.732;2022-10-16T05:07:52;13.48;97.35
72320;SHT30;60269;52.502;16.732;2022-10-16T05:11:24;13.36;97.64
72320;SHT30;60269;52.502;16.732;2022-10-16T05:14:56;13.34;97.83
72320;SHT30;60269;52.502;16.732;2022-10-16T05:18:30;13.46;97.57
72320;SHT30;60269;52.502;16.732;2022-10-16T05:22:02;13.44;97.42
72320;SHT30;60269;52.502;16.732;2022-10-16T05:25:34;13.36;97.84
72320;SHT30;60269;52.502;16.732;2022-10-16T05:29:05;13.41;97.65
72320;SHT30;60269;52.502;16.732;2022-10-16T05:32:37;13.38;97.70
72320;SHT30;60269;52.502;16.732;2022-10-16T05:36:10;13.38;97.62
72320;SHT30;60269;52.502;16.732;2022-10-16T05:39:42;13.39;97.73
72320;SHT30;60269;52.502;16.732;2022-10-16T05:43:13;13.36;97.80
72320;SHT30;60269;52.502;16.732;2022-10-16T05:46:46;13.29;98.01
72320;SHT30;60269;52.502;16.732;2022-10-16T05:50:18;13.32;97.95
72320;SHT30;60269;52.502;16.732;2022-10-16T05:53:49;13.48;97.67
72320;SHT30;60269;52.502;16.732;2022-10-16T05:57:22;13.56;97.18
72320;SHT30;60269;52.502;16.732;2022-10-16T06:00:57;13.61;96.88
72320;SHT30;60269;52.502;16.732;2022-10-16T06:04:29;13.52;97.24
72320;SHT30;60269;52.502;16.732;2022-10-16T06:08:01;13.56;97.29
72320;SHT30;60269;52.502;16.732;2022-10-16T06:11:33;13.55;97.31
72320;SHT30;60269;52.502;16.732;2022-10-16T06:15:05;13.59;97.09
72320;SHT30;60269;52.502;16.732;2022-10-16T06:18:38;13.66;96.96
72320;SHT30;60269;52.502;16.732;2022-10-16T06:22:10;13.72;96.71
72320;SHT30;60269;52.502;16.732;2022-10-16T06:25:42;13.80;96.41
72320;SHT30;60269;52.502;16.732;2022-10-16T06:29:14;13.83;96.47
72320;SHT30;60269;52.502;16.732;2022-10-16T06:32:45;13.89;96.36
72320;SHT30;60269;52.502;16.732;2022-10-16T06:36:18;13.89;96.26
72320;SHT30;60269;52.502;16.732;2022-10-16T06:39:50;14.04;95.99
72320;SHT30;60269;52.502;16.732;2022-10-16T06:43:23;14.21;95.32
72320;SHT30;60269;52.502;16.732;2022-10-16T06:46:56;14.35;94.79
72320;SHT30;60269;52.502;16.732;2022-10-16T06:50:27;14.40;94.64
72320;SHT30;60269;52.502;16.732;2022-10-16T06:53:59;14.48;94.51
72320;SHT30;60269;52.502;16.732;2022-10-16T06:57:34;14.54;94.22
72320;SHT30;60269;52.502;16.732;2022-10-16T07:01:06;14.58;94.18
72320;SHT30;60269;52.502;16.732;2022-10-16T07:04:38;14.72;93.86
72320;SHT30;60269;52.502;16.732;2022-10-16T07:08:10;15.02;92.86
72320;SHT30;60269;52.502;16.732;2022-10-16T07:11:42;15.11;92.41
72320;SHT30;60269;52.502;16.732;2022-10-16T07:15:14;15.10;92.37
72320;SHT30;60269;52.502;16.732;2022-10-16T07:18:46;15.11;92.45
72320;SHT30;60269;52.502;16.732;2022-10-16T07:22:19;15.13;92.27
72320;SHT30;60269;52.502;16.732;2022-10-16T07:25:54;15.55;90.73
72320;SHT30;60269;52.502;16.732;2022-10-16T07:29:27;15.96;89.41
72320;SHT30;60269;52.502;16.732;2022-10-16T07:32:59;15.77;89.77
72320;SHT30;60269;52.502;16.732;2022-10-16T07:36:31;16.32;87.98
72320;SHT30;60269;52.502;16.732;2022-10-16T07:40:03;16.44;87.10
72320;SHT30;60269;52.502;16.732;2022-10-16T07:43:35;16.43;87.43
72320;SHT30;60269;52.502;16.732;2022-10-16T07:47:08;16.60;87.39
72320;SHT30;60269;52.502;16.732;2022-10-16T07:50:40;16.94;85.34
72320;SHT30;60269;52.502;16.732;2022-10-16T07:54:12;16.73;85.57
72320;SHT30;60269;52.502;16.732;2022-10-16T07:57:44;16.70;86.43
72320;SHT30;60269;52.502;16.732;2022-10-16T08:01:17;16.78;86.73
72320;SHT30;60269;52.502;16.732;2022-10-16T08:04:49;16.75;86.26
72320;SHT30;60269;52.502;16.732;2022-10-16T08:08:21;16.63;86.82
72320;SHT30;60269;52.502;16.732;2022-10-16T08:11:53;16.65;87.38
72320;SHT30;60269;52.502;16.732;2022-10-16T08:15:30;16.54;87.25
72320;SHT30;60269;52.502;16.732;2022-10-16T08:19:02;16.37;87.99
72320;SHT30;60269;52.502;16.732;2022-10-16T08:22:34;16.20;88.62
72320;SHT30;60269;52.502;16.732;2022-10-16T08:26:07;16.26;88.40
72320;SHT30;60269;52.502;16.732;2022-10-16T08:29:39;16.29;87.92
72320;SHT30;60269;52.502;16.732;2022-10-16T08:33:11;16.34;87.89
72320;SHT30;60269;52.502;16.732;2022-10-16T08:36:43;16.56;87.49
72320;SHT30;60269;52.502;16.732;2022-10-16T08:40:24;16.85;86.84
72320;SHT30;60269;52.502;16.732;2022-10-16T08:51:36;17.12;85.15
72320;SHT30;60269;52.502;16.732;2022-10-16T08:58:55;17.40;84.19
72320;SHT30;60269;52.502;16.732;2022-10-16T09:02:39;17.60;83.81
72320;SHT30;60269;52.502;16.732;2022-10-16T09:10:14;18.07;83.54
72320;SHT30;60269;52.502;16.732;2022-10-16T09:13:54;18.48;81.63
72320;SHT30;60269;52.502;16.732;2022-10-16T09:21:35;18.90;79.52
72320;SHT30;60269;52.502;16.732;2022-10-16T09:25:20;18.49;80.93
72320;SHT30;60269;52.502;16.732;2022-10-16T09:28:52;18.15;82.56
72320;SHT30;60269;52.502;16.732;2022-10-16T09:32:25;18.42;81.72
72320;SHT30;60269;52.502;16.732;2022-10-16T09:35:57;18.55;80.62
72320;SHT30;60269;52.502;16.732;2022-10-16T09:39:30;18.18;82.11
72320;SHT30;60269;52.502;16.732;2022-10-16T09:47:14;18.29;82.17
72320;SHT30;60269;52.502;16.732;2022-10-16T09:50:55;18.46;81.33
72320;SHT30;60269;52.502;16.732;2022-10-16T09:54:27;18.93;79.74
72320;SHT30;60269;52.502;16.732;2022-10-16T09:57:59;19.37;78.44
72320;SHT30;60269;52.502;16.732;2022-10-16T10:05:29;19.76;77.30
72320;SHT30;60269;52.502;16.732;2022-10-16T10:12:48;20.23;74.99
72320;SHT30;60269;52.502;16.732;2022-10-16T10:16:26;19.76;76.27
72320;SHT30;60269;52.502;16.732;2022-10-16T10:23:32;21.08;72.33
72320;SHT30;60269;52.502;16.732;2022-10-16T10:27:10;21.02;72.09
72320;SHT30;60269;52.502;16.732;2022-10-16T10:31:06;20.60;72.20
72320;SHT30;60269;52.502;16.732;2022-10-16T10:35:12;20.13;74.44
72320;SHT30;60269;52.502;16.732;2022-10-16T10:38:58;20.64;72.50
72320;SHT30;60269;52.502;16.732;2022-10-16T10:42:39;20.47;73.22
72320;SHT30;60269;52.502;16.732;2022-10-16T10:46:23;20.47;72.62
72320;SHT30;60269;52.502;16.732;2022-10-16T10:50:12;20.30;72.57
72320;SHT30;60269;52.502;16.732;2022-10-16T10:54:24;20.13;73.85
72320;SHT30;60269;52.502;16.732;2022-10-16T11:05:41;21.28;70.90
72320;SHT30;60269;52.502;16.732;2022-10-16T11:13:04;21.77;68.37
72320;SHT30;60269;52.502;16.732;2022-10-16T11:16:51;22.38;66.89
72320;SHT30;60269;52.502;16.732;2022-10-16T11:20:26;22.57;65.51
72320;SHT30;60269;52.502;16.732;2022-10-16T11:24:10;22.04;66.79
72320;SHT30;60269;52.502;16.732;2022-10-16T11:27:46;21.42;67.49
72320;SHT30;60269;52.502;16.732;2022-10-16T11:35:00;21.50;68.74
72320;SHT30;60269;52.502;16.732;2022-10-16T11:39:01;21.45;69.32
72320;SHT30;60269;52.502;16.732;2022-10-16T11:42:40;21.02;69.96
72320;SHT30;60269;52.502;16.732;2022-10-16T11:46:18;20.95;70.25
72320;SHT30;60269;52.502;16.732;2022-10-16T11:49:55;20.84;71.27
72320;SHT30;60269;52.502;16.732;2022-10-16T11:57:33;21.16;70.07
72320;SHT30;60269;52.502;16.732;2022-10-16T12:01:31;21.15;69.77
72320;SHT30;60269;52.502;16.732;2022-10-16T12:08:58;20.89;70.50
72320;SHT30;60269;52.502;16.732;2022-10-16T12:12:39;20.79;69.95
72320;SHT30;60269;52.502;16.732;2022-10-16T12:19:43;20.84;70.22
72320;SHT30;60269;52.502;16.732;2022-10-16T12:23:20;20.74;70.62
72320;SHT30;60269;52.502;16.732;2022-10-16T12:26:53;20.71;70.44
72320;SHT30;60269;52.502;16.732;2022-10-16T12:30:27;20.52;71.13
72320;SHT30;60269;52.502;16.732;2022-10-16T12:34:04;20.45;71.22
72320;SHT30;60269;52.502;16.732;2022-10-16T12:37:37;20.39;71.76
72320;SHT30;60269;52.502;16.732;2022-10-16T12:41:09;20.36;71.57
72320;SHT30;60269;52.502;16.732;2022-10-16T12:44:42;20.65;69.93
72320;SHT30;60269;52.502;16.732;2022-10-16T12:48:21;20.85;69.92
72320;SHT30;60269;52.502;16.732;2022-10-16T12:52:03;21.37;68.11
72320;SHT30;60269;52.502;16.732;2022-10-16T12:55:48;22.19;65.17
72320;SHT30;60269;52.502;16.732;2022-10-16T12:59:24;22.70;64.07
72320;SHT30;60269;52.502;16.732;2022-10-16T13:25:44;21.08;66.63
72320;SHT30;60269;52.502;16.732;2022-10-16T13:29:19;20.70;67.84
72320;SHT30;60269;52.502;16.732;2022-10-16T13:33:10;20.41;68.88
72320;SHT30;60269;52.502;16.732;2022-10-16T13:36:47;20.67;67.67
72320;SHT30;60269;52.502;16.732;2022-10-16T13:40:23;20.78;67.87
72320;SHT30;60269;52.502;16.732;2022-10-16T13:43:56;21.26;66.62
72320;SHT30;60269;52.502;16.732;2022-10-16T13:47:29;21.93;65.15
72320;SHT30;60269;52.502;16.732;2022-10-16T13:54:34;21.73;66.46
72320;SHT30;60269;52.502;16.732;2022-10-16T13:58:13;22.05;64.65
72320;SHT30;60269;52.502;16.732;2022-10-16T14:01:45;21.06;67.60
72320;SHT30;60269;52.502;16.732;2022-10-16T14:05:17;20.71;68.70
72320;SHT30;60269;52.502;16.732;2022-10-16T14:09:09;20.51;69.22
72320;SHT30;60269;52.502;16.732;2022-10-16T14:12:54;20.23;70.90
72320;SHT30;60269;52.502;16.732;2022-10-16T14:16:29;20.02;71.79
72320;SHT30;60269;52.502;16.732;2022-10-16T14:20:04;19.94;72.41
72320;SHT30;60269;52.502;16.732;2022-10-16T14:23:39;20.00;72.42
72320;SHT30;60269;52.502;16.732;2022-10-16T14:27:25;19.93;72.59
72320;SHT30;60269;52.502;16.732;2022-10-16T14:31:00;20.13;72.06
72320;SHT30;60269;52.502;16.732;2022-10-16T14:34:35;20.19;72.32
72320;SHT30;60269;52.502;16.732;2022-10-16T14:38:18;20.33;71.60
72320;SHT30;60269;52.502;16.732;2022-10-16T14:41:52;20.44;71.34
72320;SHT30;60269;52.502;16.732;2022-10-16T14:45:27;20.55;71.57
72320;SHT30;60269;52.502;16.732;2022-10-16T14:49:15;21.64;68.44
72320;SHT30;60269;52.502;16.732;2022-10-16T14:52:48;22.35;65.51
72320;SHT30;60269;52.502;16.732;2022-10-16T14:56:22;22.25;66.13
72320;SHT30;60269;52.502;16.732;2022-10-16T14:59:55;22.16;65.71
72320;SHT30;60269;52.502;16.732;2022-10-16T15:03:27;22.08;65.91
72320;SHT30;60269;52.502;16.732;2022-10-16T15:06:59;21.19;68.28
72320;SHT30;60269;52.502;16.732;2022-10-16T15:10:42;20.44;70.92
72320;SHT30;60269;52.502;16.732;2022-10-16T15:14:14;19.90;72.85
72320;SHT30;60269;52.502;16.732;2022-10-16T15:17:46;19.93;73.16
72320;SHT30;60269;52.502;16.732;2022-10-16T15:21:25;20.26;72.32
72320;SHT30;60269;52.502;16.732;2022-10-16T15:24:58;20.36;71.64
72320;SHT30;60269;52.502;16.732;2022-10-16T15:28:29;20.39;71.53
72320;SHT30;60269;52.502;16.732;2022-10-16T15:32:02;20.24;71.64
72320;SHT30;60269;52.502;16.732;2022-10-16T15:35:33;20.00;72.37
72320;SHT30;60269;52.502;16.732;2022-10-16T15:39:12;19.24;74.86
72320;SHT30;60269;52.502;16.732;2022-10-16T15:42:45;18.65;76.93
72320;SHT30;60269;52.502;16.732;2022-10-16T15:46:19;18.24;78.47
72320;SHT30;60269;52.502;16.732;2022-10-16T15:49:51;18.01;79.39
72320;SHT30;60269;52.502;16.732;2022-10-16T15:53:23;17.69;80.72
72320;SHT30;60269;52.502;16.732;2022-10-16T15:56:55;17.86;79.34
72320;SHT30;60269;52.502;16.732;2022-10-16T16:00:26;17.66;80.62
72320;SHT30;60269;52.502;16.732;2022-10-16T16:03:58;17.33;81.98
72320;SHT30;60269;52.502;16.732;2022-10-16T16:07:35;17.14;82.93
72320;SHT30;60269;52.502;16.732;2022-10-16T16:11:11;17.01;83.21
72320;SHT30;60269;52.502;16.732;2022-10-16T16:14:43;16.88;83.45
72320;SHT30;60269;52.502;16.732;2022-10-16T16:18:17;16.77;83.05
72320;SHT30;60269;52.502;16.732;2022-10-16T16:21:50;16.56;83.74
72320;SHT30;60269;52.502;16.732;2022-10-16T16:25:22;16.34;84.46
72320;SHT30;60269;52.502;16.732;2022-10-16T16:28:55;16.29;84.81
72320;SHT30;60269;52.502;16.732;2022-10-16T16:32:28;16.16;85.07
72320;SHT30;60269;52.502;16.732;2022-10-16T16:36:05;16.12;85.17
72320;SHT30;60269;52.502;16.732;2022-10-16T16:39:43;16.05;85.50
72320;SHT30;60269;52.502;16.732;2022-10-16T16:43:15;16.15;84.87
72320;SHT30;60269;52.502;16.732;2022-10-16T16:46:47;15.96;85.73
72320;SHT30;60269;52.502;16.732;2022-10-16T16:50:18;15.69;86.67
72320;SHT30;60269;52.502;16.732;2022-10-16T16:53:51;15.65;86.85
72320;SHT30;60269;52.502;16.732;2022-10-16T16:57:24;15.68;86.61
72320;SHT30;60269;52.502;16.732;2022-10-16T17:00:56;15.67;86.53
72320;SHT30;60269;52.502;16.732;2022-10-16T17:04:50;15.72;86.35
72320;SHT30;60269;52.502;16.732;2022-10-16T17:08:22;15.64;86.43
72320;SHT30;60269;52.502;16.732;2022-10-16T17:11:54;15.53;86.70
72320;SHT30;60269;52.502;16.732;2022-10-16T17:15:26;15.46;87.13
72320;SHT30;60269;52.502;16.732;2022-10-16T17:19:03;15.28;88.02
72320;SHT30;60269;52.502;16.732;2022-10-16T17:22:35;15.23;88.27
72320;SHT30;60269;52.502;16.732;2022-10-16T17:26:16;15.10;88.70
72320;SHT30;60269;52.502;16.732;2022-10-16T17:29:51;14.93;89.54
72320;SHT30;60269;52.502;16.732;2022-10-16T17:33:23;14.80;89.96
72320;SHT30;60269;52.502;16.732;2022-10-16T17:36:55;14.85;90.04
72320;SHT30;60269;52.502;16.732;2022-10-16T17:40:27;14.88;89.97
72320;SHT30;60269;52.502;16.732;2022-10-16T17:43:59;14.67;90.29
72320;SHT30;60269;52.502;16.732;2022-10-16T17:47:31;14.44;91.52
72320;SHT30;60269;52.502;16.732;2022-10-16T17:51:04;14.49;91.62
72320;SHT30;60269;52.502;16.732;2022-10-16T17:54:36;14.67;91.20
72320;SHT30;60269;52.502;16.732;2022-10-16T17:58:08;14.64;91.29
72320;SHT30;60269;52.502;16.732;2022-10-16T18:01:40;14.62;91.38
72320;SHT30;60269;52.502;16.732;2022-10-16T18:05:12;14.73;91.25
72320;SHT30;60269;52.502;16.732;2022-10-16T18:08:44;14.76;91.09
72320;SHT30;60269;52.502;16.732;2022-10-16T18:12:16;14.78;91.01
72320;SHT30;60269;52.502;16.732;2022-10-16T18:16:01;14.69;91.17
72320;SHT30;60269;52.502;16.732;2022-10-16T18:19:33;14.71;91.28
72320;SHT30;60269;52.502;16.732;2022-10-16T18:23:05;14.59;91.90
72320;SHT30;60269;52.502;16.732;2022-10-16T18:26:37;14.37;92.50
72320;SHT30;60269;52.502;16.732;2022-10-16T18:30:09;14.07;93.78
72320;SHT30;60269;52.502;16.732;2022-10-16T18:33:44;14.21;93.81
72320;SHT30;60269;52.502;16.732;2022-10-16T18:37:21;14.14;93.78
72320;SHT30;60269;52.502;16.732;2022-10-16T18:40:53;14.28;93.94
72320;SHT30;60269;52.502;16.732;2022-10-16T18:44:26;14.32;93.39
72320;SHT30;60269;52.502;16.732;2022-10-16T18:47:58;14.30;93.35
72320;SHT30;60269;52.502;16.732;2022-10-16T18:51:32;14.18;93.71
72320;SHT30;60269;52.502;16.732;2022-10-16T18:55:05;14.16;94.00
72320;SHT30;60269;52.502;16.732;2022-10-16T18:58:37;14.09;94.15
72320;SHT30;60269;52.502;16.732;2022-10-16T19:02:11;14.14;93.84
72320;SHT30;60269;52.502;16.732;2022-10-16T19:05:44;14.04;93.78
72320;SHT30;60269;52.502;16.732;2022-10-16T19:09:21;13.90;94.16
72320;SHT30;60269;52.502;16.732;2022-10-16T19:12:54;13.83;94.60
72320;SHT30;60269;52.502;16.732;2022-10-16T19:16:28;13.80;94.91
72320;SHT30;60269;52.502;16.732;2022-10-16T19:20:01;13.83;94.92
72320;SHT30;60269;52.502;16.732;2022-10-16T19:23:32;13.77;94.66
72320;SHT30;60269;52.502;16.732;2022-10-16T19:27:05;13.73;94.88
72320;SHT30;60269;52.502;16.732;2022-10-16T19:30:38;13.62;95.17
72320;SHT30;60269;52.502;16.732;2022-10-16T19:34:10;13.53;95.73
72320;SHT30;60269;52.502;16.732;2022-10-16T19:37:42;13.52;95.69
72320;SHT30;60269;52.502;16.732;2022-10-16T19:41:16;13.49;95.83
72320;SHT30;60269;52.502;16.732;2022-10-16T19:44:48;13.38;96.18
72320;SHT30;60269;52.502;16.732;2022-10-16T19:48:21;13.29;96.62
72320;SHT30;60269;52.502;16.732;2022-10-16T19:51:58;13.11;97.43
72320;SHT30;60269;52.502;16.732;2022-10-16T19:55:30;13.03;97.84
72320;SHT30;60269;52.502;16.732;2022-10-16T19:59:04;13.04;97.87
72320;SHT30;60269;52.502;16.732;2022-10-16T20:02:36;13.03;98.01
72320;SHT30;60269;52.502;16.732;2022-10-16T20:06:08;13.05;97.99
72320;SHT30;60269;52.502;16.732;2022-10-16T20:09:40;12.98;98.16
72320;SHT30;60269;52.502;16.732;2022-10-16T20:13:12;12.87;98.53
72320;SHT30;60269;52.502;16.732;2022-10-16T20:16:44;13.01;98.48
72320;SHT30;60269;52.502;16.732;2022-10-16T20:20:16;13.18;98.02
72320;SHT30;60269;52.502;16.732;2022-10-16T20:23:48;13.25;97.93
72320;SHT30;60269;52.502;16.732;2022-10-16T20:27:21;13.34;97.50
72320;SHT30;60269;52.502;16.732;2022-10-16T20:30:53;13.53;97.21
72320;SHT30;60269;52.502;16.732;2022-10-16T20:34:25;13.42;96.86
72320;SHT30;60269;52.502;16.732;2022-10-16T20:37:57;13.31;97.05
72320;SHT30;60269;52.502;16.732;2022-10-16T20:41:28;13.36;97.16
72320;SHT30;60269;52.502;16.732;2022-10-16T20:45:00;13.46;96.96
72320;SHT30;60269;52.502;16.732;2022-10-16T20:48:32;13.49;96.98
72320;SHT30;60269;52.502;16.732;2022-10-16T20:52:04;13.48;96.82
72320;SHT30;60269;52.502;16.732;2022-10-16T20:55:36;13.39;96.86
72320;SHT30;60269;52.502;16.732;2022-10-16T20:59:09;13.34;97.20
72320;SHT30;60269;52.502;16.732;2022-10-16T21:02:42;13.10;97.92
72320;SHT30;60269;52.502;16.732;2022-10-16T21:06:15;12.91;98.83
72320;SHT30;60269;52.502;16.732;2022-10-16T21:09:46;12.74;99.08
72320;SHT30;60269;52.502;16.732;2022-10-16T21:13:18;12.39;98.95
72320;SHT30;60269;52.502;16.732;2022-10-16T21:16:50;12.32;99.17
72320;SHT30;60269;52.502;16.732;2022-10-16T21:20:22;12.46;99.76
72320;SHT30;60269;52.502;16.732;2022-10-16T21:23:55;12.50;99.74
72320;SHT30;60269;52.502;16.732;2022-10-16T21:27:27;12.47;99.62
72320;SHT30;60269;52.502;16.732;2022-10-16T21:31:12;11.92;98.92
72320;SHT30;60269;52.502;16.732;2022-10-16T21:34:44;11.54;99.40
72320;SHT30;60269;52.502;16.732;2022-10-16T21:38:16;11.66;99.99
72320;SHT30;60269;52.502;16.732;2022-10-16T21:41:49;11.59;99.99
72320;SHT30;60269;52.502;16.732;2022-10-16T21:45:21;11.36;99.89
72320;SHT30;60269;52.502;16.732;2022-10-16T21:48:57;11.26;99.97
72320;SHT30;60269;52.502;16.732;2022-10-16T21:52:29;11.24;99.99
72320;SHT30;60269;52.502;16.732;2022-10-16T21:56:01;11.34;99.99
72320;SHT30;60269;52.502;16.732;2022-10-16T21:59:32;11.22;99.99
72320;SHT30;60269;52.502;16.732;2022-10-16T22:03:04;11.36;99.99
72320;SHT30;60269;52.502;16.732;2022-10-16T22:06:37;11.70;99.99
72320;SHT30;60269;52.502;16.732;2022-10-16T22:10:09;11.81;99.99
72320;SHT30;60269;52.502;16.732;2022-10-16T22:13:41;11.59;99.99
72320;SHT30;60269;52.502;16.732;2022-10-16T22:17:13;11.54;99.99
72320;SHT30;60269;52.502;16.732;2022-10-16T22:20:45;11.66;99.99
72320;SHT30;60269;52.502;16.732;2022-10-16T22:24:17;11.85;99.99
72320;SHT30;60269;52.502;16.732;2022-10-16T22:27:49;12.08;99.99
72320;SHT30;60269;52.502;16.732;2022-10-16T22:31:21;12.21;99.99
72320;SHT30;60269;52.502;16.732;2022-10-16T22:34:54;12.30;99.99
72320;SHT30;60269;52.502;16.732;2022-10-16T22:38:33;12.42;99.99
72320;SHT30;60269;52.502;16.732;2022-10-16T22:42:06;12.57;99.99
72320;SHT30;60269;52.502;16.732;2022-10-16T22:45:38;12.61;99.99
72320;SHT30;60269;52.502;16.732;2022-10-16T22:49:09;12.52;99.99
72320;SHT30;60269;52.502;16.732;2022-10-16T22:52:41;12.55;99.99
72320;SHT30;60269;52.502;16.732;2022-10-16T22:56:15;12.53;99.92
72320;SHT30;60269;52.502;16.732;2022-10-16T22:59:47;12.50;99.80
72320;SHT30;60269;52.502;16.732;2022-10-16T23:03:19;12.53;99.89
72320;SHT30;60269;52.502;16.732;2022-10-16T23:06:51;12.59;99.85
72320;SHT30;60269;52.502;16.732;2022-10-16T23:10:23;12.60;99.86
72320;SHT30;60269;52.502;16.732;2022-10-16T23:13:58;12.63;99.83
72320;SHT30;60269;52.502;16.732;2022-10-16T23:17:29;12.70;99.85
72320;SHT30;60269;52.502;16.732;2022-10-16T23:21:09;12.79;99.83
72320;SHT30;60269;52.502;16.732;2022-10-16T23:24:42;12.87;99.81
72320;SHT30;60269;52.502;16.732;2022-10-16T23:28:14;12.91;99.76
72320;SHT30;60269;52.502;16.732;2022-10-16T23:31:53;12.76;99.59
72320;SHT30;60269;52.502;16.732;2022-10-16T23:35:25;12.77;99.58
72320;SHT30;60269;52.502;16.732;2022-10-16T23:38:56;12.83;99.56
72320;SHT30;60269;52.502;16.732;2022-10-16T23:42:28;12.86;99.39
72320;SHT30;60269;52.502;16.732;2022-10-16T23:46:01;12.95;99.51
72320;SHT30;60269;52.502;16.732;2022-10-16T23:49:33;13.00;99.51